EVRAEETN

Guest
Details From EVRA - Riga Intl
To EETN - TALLINN
Flight Number -
Tags generated
Created
Modified
Stats Distance 152 nm / 281 km
Max Altitude 19,700 ft / 6,005 m
Waypoints 3
Social Downloads 0
Likes 0
Share VATSIM

Download

Looking for another format? Having issues loading an existing format? Contact us
Advertisement - Login to hide

Notes

Basic altitude profile: - Ascent Rate: 1500ft/min - Ascent Speed: 180kts - Cruise Altitude: 24000ft - Cruise Speed: 234kts - Descent Rate: 1500ft/min - Descent Speed: 180kts Options: - Use NATs: yes - Use PACOTS: yes - Use low airways: yes - Use high airways: yes

Route

EVRA SOKVA EETN

ID Type Via Altitude Latitude Longitude Leg Dist Tot Dist Heading (true) Name
O EVRA APT - 0 ft / 0 m 56.92366˚ 23.97119˚ - 0 nm - Riga Intl
SOKVA FIX - 19,700 ft / 6,005 m 57.90000˚ 24.29944˚ 59 nm 59 nm 10° / 10° -
O EETN APT - 0 ft / 0 m 59.41326˚ 24.83280˚ 92 nm 151 nm 10° / 11° TALLINN

Altitude Profile

Advertisement - Login to hide

EVRA

Details ICAO EVRA (RIX)
Name Riga Intl
Region Latvia
Timezone Europe/Riga (UTC+2.0)
Stats Elevation 34 ft / 10 m (AMSL)
Location 56.923662° 23.971193°
Runways 1
Magnetic Variation 7.655° E

METAR

EVRA 112320Z 13008KT 9999 OVC010 01/00 Q0997 R18/290195 NOSIG

Decode

TAF

TAF TAF EVRA 112000Z 1121/1221 13007KT 8000 BKN010 OVC020 TEMPO 1121/1202 BKN015 BECMG 1206/1208 19010KT TEMPO 1208/1210 18017G27KT 3000 -RA BR BKN005 BECMG 1210/1212 BKN020 TEMPO 1215/1221 20015G28KT

Decode

Departure Runways

ID Width Length Bearing (true) Bearing (mag) Surface Threshold Offset Overrun Length
18 148 ft / 45 m 8,358 ft / 2,548 m 185.15° 177.49° Asphalt 0 ft / 0 m 170 ft / 52 m
36 148 ft / 45 m 8,358 ft / 2,548 m 5.14° 357.48° Asphalt 0 ft / 0 m 170 ft / 52 m

EETN

Details ICAO EETN (TLL)
Name TALLINN
Region Estonia
Timezone Europe/Tallinn (UTC+2.0)
Stats Elevation 131 ft / 40 m (AMSL)
Location 59.413257° 24.832803°
Runways 1
Magnetic Variation 8.635° E

METAR

EETN 112320Z 13010KT 9999 OVC011 M02/M03 Q0999 R08/190195

Decode

TAF

TAF EETN 111720Z 1118/1218 11010KT 9999 BKN013 PROB40 TEMPO 1119/1124 3000 SN BKN008 BECMG 1202/1204 4000 SN BKN006 OVC010 TEMPO 1204/1212 0800 FZRA +SN VV003 BECMG 1206/1208 16016G26KT BECMG 1212/1214 3000 RADZ BKN004 OVC010

Decode

Destination Runways

ID Width Length Bearing (true) Bearing (mag) Surface Threshold Offset Overrun Length
08 148 ft / 45 m 10,023 ft / 3,055 m 90.24° 81.61° Asphalt 820 ft / 250 m 0 ft / 0 m
26 148 ft / 45 m 10,023 ft / 3,055 m 270.28° 261.65° Asphalt 0 ft / 0 m 184 ft / 56 m

Approach Navaids

Runway Type Ident Frequency Range Bearing (true) Bearing (mag) Slope Elevation
08 Localiser IIB 111.70 MHz 18 nm / 33 km 90.33° 81.70° - 131 ft / 40 m (AMSL)
08 Glidescope IIB 111.70 MHz 10 nm / 19 km 90.26° 81.63° 3.00° 131 ft / 40 m (AMSL)
26 Localiser ILK 110.30 MHz 18 nm / 33 km 270.24° 261.61° - 131 ft / 40 m (AMSL)
26 Glidescope ILK 110.30 MHz 10 nm / 19 km 270.26° 261.63° 3.00° 131 ft / 40 m (AMSL)

Popular Alternatives